sensor_id;sensor_type;location;lat;lon;timestamp;P1;durP1;ratioP1;P2;durP2;ratioP2
55112;SDS011;41006;50.920;3.456;2023-05-23T00:00:15;63.72;;;41.53;;
55112;SDS011;41006;50.920;3.456;2023-05-23T00:00:49;67.78;;;41.60;;
55112;SDS011;41006;50.920;3.456;2023-05-23T00:01:21;73.95;;;43.10;;
55112;SDS011;41006;50.920;3.456;2023-05-23T00:01:53;77.18;;;46.33;;
55112;SDS011;41006;50.920;3.456;2023-05-23T00:02:24;68.45;;;44.05;;
55112;SDS011;41006;50.920;3.456;2023-05-23T00:02:54;68.15;;;44.42;;
55112;SDS011;41006;50.920;3.456;2023-05-23T00:03:27;65.70;;;42.47;;
55112;SDS011;41006;50.920;3.456;2023-05-23T00:03:59;65.75;;;41.88;;
55112;SDS011;41006;50.920;3.456;2023-05-23T00:04:33;64.35;;;41.90;;
55112;SDS011;41006;50.920;3.456;2023-05-23T00:05:06;71.45;;;42.28;;
55112;SDS011;41006;50.920;3.456;2023-05-23T00:05:42;62.50;;;42.78;;
55112;SDS011;41006;50.920;3.456;2023-05-23T00:06:12;79.07;;;42.58;;
55112;SDS011;41006;50.920;3.456;2023-05-23T00:06:43;71.75;;;41.60;;
55112;SDS011;41006;50.920;3.456;2023-05-23T00:07:19;66.00;;;43.00;;
55112;SDS011;41006;50.920;3.456;2023-05-23T00:07:51;78.07;;;42.53;;
55112;SDS011;41006;50.920;3.456;2023-05-23T00:08:24;71.45;;;42.72;;
55112;SDS011;41006;50.920;3.456;2023-05-23T00:08:57;68.03;;;42.90;;
55112;SDS011;41006;50.920;3.456;2023-05-23T00:09:28;65.20;;;42.90;;
55112;SDS011;41006;50.920;3.456;2023-05-23T00:09:58;67.35;;;41.42;;
55112;SDS011;41006;50.920;3.456;2023-05-23T00:10:31;69.75;;;41.25;;
55112;SDS011;41006;50.920;3.456;2023-05-23T00:11:04;75.40;;;40.22;;
55112;SDS011;41006;50.920;3.456;2023-05-23T00:11:36;56.45;;;39.58;;
55112;SDS011;41006;50.920;3.456;2023-05-23T00:12:13;63.35;;;39.92;;
55112;SDS011;41006;50.920;3.456;2023-05-23T00:12:44;61.00;;;40.10;;
55112;SDS011;41006;50.920;3.456;2023-05-23T00:13:19;64.20;;;41.15;;
55112;SDS011;41006;50.920;3.456;2023-05-23T00:13:52;57.22;;;39.20;;
55112;SDS011;41006;50.920;3.456;2023-05-23T00:14:26;57.50;;;38.20;;
55112;SDS011;41006;50.920;3.456;2023-05-23T00:15:02;60.83;;;40.45;;
55112;SDS011;41006;50.920;3.456;2023-05-23T00:15:33;65.43;;;38.83;;
55112;SDS011;41006;50.920;3.456;2023-05-23T00:16:03;57.90;;;40.22;;
55112;SDS011;41006;50.920;3.456;2023-05-23T00:16:33;57.85;;;38.70;;
55112;SDS011;41006;50.920;3.456;2023-05-23T00:17:04;60.70;;;39.22;;
55112;SDS011;41006;50.920;3.456;2023-05-23T00:17:34;52.20;;;40.10;;
55112;SDS011;41006;50.920;3.456;2023-05-23T00:18:08;48.88;;;35.85;;
55112;SDS011;41006;50.920;3.456;2023-05-23T00:18:45;65.68;;;38.95;;
55112;SDS011;41006;50.920;3.456;2023-05-23T00:19:16;54.10;;;38.65;;
55112;SDS011;41006;50.920;3.456;2023-05-23T00:19:46;58.65;;;37.70;;
55112;SDS011;41006;50.920;3.456;2023-05-23T00:20:19;57.13;;;38.00;;
55112;SDS011;41006;50.920;3.456;2023-05-23T00:20:50;59.78;;;38.20;;
55112;SDS011;41006;50.920;3.456;2023-05-23T00:21:23;47.80;;;37.78;;
55112;SDS011;41006;50.920;3.456;2023-05-23T00:21:55;48.42;;;36.72;;
55112;SDS011;41006;50.920;3.456;2023-05-23T00:22:28;45.42;;;34.90;;
55112;SDS011;41006;50.920;3.456;2023-05-23T00:22:59;52.70;;;36.53;;
55112;SDS011;41006;50.920;3.456;2023-05-23T00:23:29;53.08;;;37.20;;
55112;SDS011;41006;50.920;3.456;2023-05-23T00:24:02;54.20;;;36.08;;
55112;SDS011;41006;50.920;3.456;2023-05-23T00:24:35;54.13;;;35.55;;
55112;SDS011;41006;50.920;3.456;2023-05-23T00:25:08;55.60;;;36.25;;
55112;SDS011;41006;50.920;3.456;2023-05-23T00:25:41;48.63;;;35.92;;
55112;SDS011;41006;50.920;3.456;2023-05-23T00:26:17;44.55;;;36.47;;
55112;SDS011;41006;50.920;3.456;2023-05-23T00:26:47;51.88;;;35.25;;
55112;SDS011;41006;50.920;3.456;2023-05-23T00:27:20;51.38;;;35.47;;
55112;SDS011;41006;50.920;3.456;2023-05-23T00:27:50;53.30;;;35.50;;
55112;SDS011;41006;50.920;3.456;2023-05-23T00:28:26;51.22;;;34.97;;
55112;SDS011;41006;50.920;3.456;2023-05-23T00:29:02;52.83;;;35.97;;
55112;SDS011;41006;50.920;3.456;2023-05-23T00:29:32;55.13;;;35.92;;
55112;SDS011;41006;50.920;3.456;2023-05-23T00:30:03;57.78;;;34.95;;
55112;SDS011;41006;50.920;3.456;2023-05-23T00:30:33;54.00;;;35.75;;
55112;SDS011;41006;50.920;3.456;2023-05-23T00:31:04;45.58;;;34.95;;
55112;SDS011;41006;50.920;3.456;2023-05-23T00:31:36;55.50;;;37.88;;
55112;SDS011;41006;50.920;3.456;2023-05-23T00:32:09;59.88;;;35.67;;
55112;SDS011;41006;50.920;3.456;2023-05-23T00:32:42;58.63;;;36.47;;
55112;SDS011;41006;50.920;3.456;2023-05-23T00:33:15;51.88;;;34.83;;
55112;SDS011;41006;50.920;3.456;2023-05-23T00:33:46;49.03;;;34.83;;
55112;SDS011;41006;50.920;3.456;2023-05-23T00:34:16;48.25;;;35.05;;
55112;SDS011;41006;50.920;3.456;2023-05-23T00:34:47;51.83;;;35.33;;
55112;SDS011;41006;50.920;3.456;2023-05-23T00:35:23;54.45;;;35.40;;
55112;SDS011;41006;50.920;3.456;2023-05-23T00:35:56;59.25;;;37.15;;
55112;SDS011;41006;50.920;3.456;2023-05-23T00:36:26;60.38;;;36.20;;
55112;SDS011;41006;50.920;3.456;2023-05-23T00:36:59;55.58;;;35.97;;
55112;SDS011;41006;50.920;3.456;2023-05-23T00:37:33;48.40;;;34.38;;
55112;SDS011;41006;50.920;3.456;2023-05-23T00:38:03;56.60;;;35.15;;
55112;SDS011;41006;50.920;3.456;2023-05-23T00:38:36;52.85;;;34.45;;
55112;SDS011;41006;50.920;3.456;2023-05-23T00:39:07;56.33;;;35.13;;
55112;SDS011;41006;50.920;3.456;2023-05-23T00:39:37;55.92;;;34.58;;
55112;SDS011;41006;50.920;3.456;2023-05-23T00:40:08;45.25;;;32.40;;
55112;SDS011;41006;50.920;3.456;2023-05-23T00:40:38;55.53;;;33.45;;
55112;SDS011;41006;50.920;3.456;2023-05-23T00:41:09;56.63;;;34.47;;
55112;SDS011;41006;50.920;3.456;2023-05-23T00:41:40;47.70;;;35.58;;
55112;SDS011;41006;50.920;3.456;2023-05-23T00:42:10;46.60;;;34.60;;
55112;SDS011;41006;50.920;3.456;2023-05-23T00:42:43;54.85;;;36.10;;
55112;SDS011;41006;50.920;3.456;2023-05-23T00:43:13;57.33;;;34.47;;
55112;SDS011;41006;50.920;3.456;2023-05-23T00:43:45;51.85;;;36.35;;
55112;SDS011;41006;50.920;3.456;2023-05-23T00:44:18;55.17;;;35.95;;
55112;SDS011;41006;50.920;3.456;2023-05-23T00:44:49;52.90;;;35.60;;
55112;SDS011;41006;50.920;3.456;2023-05-23T00:45:24;49.72;;;34.70;;
55112;SDS011;41006;50.920;3.456;2023-05-23T00:45:54;45.38;;;32.85;;
55112;SDS011;41006;50.920;3.456;2023-05-23T00:46:28;46.83;;;33.70;;
55112;SDS011;41006;50.920;3.456;2023-05-23T00:47:05;43.10;;;34.17;;
55112;SDS011;41006;50.920;3.456;2023-05-23T00:47:40;48.33;;;32.97;;
55112;SDS011;41006;50.920;3.456;2023-05-23T00:48:11;35.75;;;31.95;;
55112;SDS011;41006;50.920;3.456;2023-05-23T00:48:43;45.10;;;34.63;;
55112;SDS011;41006;50.920;3.456;2023-05-23T00:49:16;45.90;;;33.72;;
55112;SDS011;41006;50.920;3.456;2023-05-23T00:49:49;37.60;;;31.48;;
55112;SDS011;41006;50.920;3.456;2023-05-23T00:50:22;39.97;;;31.77;;
55112;SDS011;41006;50.920;3.456;2023-05-23T00:51:00;35.13;;;31.40;;
55112;SDS011;41006;50.920;3.456;2023-05-23T00:51:31;39.75;;;32.90;;
55112;SDS011;41006;50.920;3.456;2023-05-23T00:52:02;35.50;;;30.73;;
55112;SDS011;41006;50.920;3.456;2023-05-23T00:52:33;39.20;;;30.70;;
55112;SDS011;41006;50.920;3.456;2023-05-23T00:53:06;36.50;;;31.40;;
55112;SDS011;41006;50.920;3.456;2023-05-23T00:53:37;37.72;;;30.00;;
55112;SDS011;41006;50.920;3.456;2023-05-23T00:54:09;31.88;;;28.45;;
55112;SDS011;41006;50.920;3.456;2023-05-23T00:54:40;33.13;;;29.58;;
55112;SDS011;41006;50.920;3.456;2023-05-23T00:55:13;38.03;;;29.13;;
55112;SDS011;41006;50.920;3.456;2023-05-23T00:55:44;38.03;;;29.80;;
55112;SDS011;41006;50.920;3.456;2023-05-23T00:56:17;32.13;;;28.73;;
55112;SDS011;41006;50.920;3.456;2023-05-23T00:56:50;38.13;;;28.77;;
55112;SDS011;41006;50.920;3.456;2023-05-23T00:57:21;38.85;;;29.88;;
55112;SDS011;41006;50.920;3.456;2023-05-23T00:57:56;34.42;;;28.13;;
55112;SDS011;41006;50.920;3.456;2023-05-23T00:58:27;31.60;;;27.95;;
55112;SDS011;41006;50.920;3.456;2023-05-23T00:58:59;31.05;;;27.92;;
55112;SDS011;41006;50.920;3.456;2023-05-23T00:59:33;37.90;;;29.13;;
55112;SDS011;41006;50.920;3.456;2023-05-23T01:00:12;30.63;;;27.52;;
55112;SDS011;41006;50.920;3.456;2023-05-23T01:00:46;32.15;;;28.85;;
55112;SDS011;41006;50.920;3.456;2023-05-23T01:01:25;35.00;;;28.25;;
55112;SDS011;41006;50.920;3.456;2023-05-23T01:01:58;31.45;;;28.42;;
55112;SDS011;41006;50.920;3.456;2023-05-23T01:02:32;31.77;;;27.83;;
55112;SDS011;41006;50.920;3.456;2023-05-23T01:03:05;32.30;;;28.70;;
55112;SDS011;41006;50.920;3.456;2023-05-23T01:03:36;32.17;;;28.80;;
55112;SDS011;41006;50.920;3.456;2023-05-23T01:04:10;33.40;;;29.90;;
55112;SDS011;41006;50.920;3.456;2023-05-23T01:04:42;32.78;;;29.35;;
55112;SDS011;41006;50.920;3.456;2023-05-23T01:05:15;39.00;;;28.65;;
55112;SDS011;41006;50.920;3.456;2023-05-23T01:05:51;33.58;;;28.73;;
55112;SDS011;41006;50.920;3.456;2023-05-23T01:06:27;30.70;;;27.95;;
55112;SDS011;41006;50.920;3.456;2023-05-23T01:06:59;33.28;;;29.98;;
55112;SDS011;41006;50.920;3.456;2023-05-23T01:07:33;34.03;;;29.20;;
55112;SDS011;41006;50.920;3.456;2023-05-23T01:08:03;33.78;;;29.85;;
55112;SDS011;41006;50.920;3.456;2023-05-23T01:08:33;33.17;;;29.63;;
55112;SDS011;41006;50.920;3.456;2023-05-23T01:09:06;33.40;;;30.20;;
55112;SDS011;41006;50.920;3.456;2023-05-23T01:09:39;33.72;;;29.42;;
55112;SDS011;41006;50.920;3.456;2023-05-23T01:10:12;34.50;;;30.52;;
55112;SDS011;41006;50.920;3.456;2023-05-23T01:10:43;32.58;;;29.33;;
55112;SDS011;41006;50.920;3.456;2023-05-23T01:11:18;32.83;;;29.40;;
55112;SDS011;41006;50.920;3.456;2023-05-23T01:12:19;32.45;;;29.30;;
55112;SDS011;41006;50.920;3.456;2023-05-23T01:13:50;33.88;;;30.35;;
55112;SDS011;41006;50.920;3.456;2023-05-23T01:14:48;34.70;;;31.33;;
55112;SDS011;41006;50.920;3.456;2023-05-23T01:16:25;35.47;;;31.55;;
55112;SDS011;41006;50.920;3.456;2023-05-23T01:17:03;36.58;;;30.60;;
55112;SDS011;41006;50.920;3.456;2023-05-23T01:17:43;38.50;;;30.35;;
55112;SDS011;41006;50.920;3.456;2023-05-23T01:20:06;38.72;;;32.10;;
55112;SDS011;41006;50.920;3.456;2023-05-23T01:20:54;40.03;;;30.77;;
55112;SDS011;41006;50.920;3.456;2023-05-23T01:21:28;38.97;;;31.23;;
55112;SDS011;41006;50.920;3.456;2023-05-23T01:22:02;44.15;;;33.17;;
55112;SDS011;41006;50.920;3.456;2023-05-23T01:24:53;40.80;;;31.77;;
55112;SDS011;41006;50.920;3.456;2023-05-23T01:27:48;46.58;;;33.10;;
55112;SDS011;41006;50.920;3.456;2023-05-23T01:28:31;40.67;;;32.17;;
55112;SDS011;41006;50.920;3.456;2023-05-23T01:29:12;39.45;;;31.52;;
55112;SDS011;41006;50.920;3.456;2023-05-23T01:29:50;42.92;;;32.58;;
55112;SDS011;41006;50.920;3.456;2023-05-23T01:30:25;46.35;;;34.05;;
55112;SDS011;41006;50.920;3.456;2023-05-23T01:31:01;42.85;;;34.35;;
55112;SDS011;41006;50.920;3.456;2023-05-23T01:31:33;44.63;;;34.28;;
55112;SDS011;41006;50.920;3.456;2023-05-23T01:32:06;43.95;;;33.67;;
55112;SDS011;41006;50.920;3.456;2023-05-23T01:32:41;41.63;;;33.70;;
55112;SDS011;41006;50.920;3.456;2023-05-23T01:33:15;43.15;;;33.42;;
55112;SDS011;41006;50.920;3.456;2023-05-23T01:33:49;41.13;;;34.22;;
55112;SDS011;41006;50.920;3.456;2023-05-23T01:34:24;39.95;;;34.53;;
55112;SDS011;41006;50.920;3.456;2023-05-23T01:34:57;40.05;;;33.97;;
55112;SDS011;41006;50.920;3.456;2023-05-23T01:35:29;39.63;;;34.65;;
55112;SDS011;41006;50.920;3.456;2023-05-23T01:36:02;47.08;;;37.03;;
55112;SDS011;41006;50.920;3.456;2023-05-23T01:36:42;46.75;;;35.05;;
55112;SDS011;41006;50.920;3.456;2023-05-23T01:37:13;42.05;;;35.17;;
55112;SDS011;41006;50.920;3.456;2023-05-23T01:37:48;43.88;;;35.15;;
55112;SDS011;41006;50.920;3.456;2023-05-23T01:38:19;48.42;;;35.45;;
55112;SDS011;41006;50.920;3.456;2023-05-23T01:38:49;47.75;;;35.00;;
55112;SDS011;41006;50.920;3.456;2023-05-23T01:39:19;46.08;;;37.35;;
55112;SDS011;41006;50.920;3.456;2023-05-23T01:39:53;47.70;;;36.92;;
55112;SDS011;41006;50.920;3.456;2023-05-23T01:40:26;46.90;;;35.13;;
55112;SDS011;41006;50.920;3.456;2023-05-23T01:40:59;52.55;;;34.72;;
55112;SDS011;41006;50.920;3.456;2023-05-23T01:41:29;47.45;;;35.50;;
55112;SDS011;41006;50.920;3.456;2023-05-23T01:42:03;48.88;;;33.30;;
55112;SDS011;41006;50.920;3.456;2023-05-23T01:42:36;44.28;;;34.17;;
55112;SDS011;41006;50.920;3.456;2023-05-23T01:43:09;48.63;;;33.60;;
55112;SDS011;41006;50.920;3.456;2023-05-23T01:43:40;49.58;;;34.85;;
55112;SDS011;41006;50.920;3.456;2023-05-23T01:44:10;49.33;;;34.60;;
55112;SDS011;41006;50.920;3.456;2023-05-23T01:44:44;52.97;;;36.05;;
55112;SDS011;41006;50.920;3.456;2023-05-23T01:45:15;54.67;;;36.63;;
55112;SDS011;41006;50.920;3.456;2023-05-23T01:45:48;49.60;;;35.05;;
55112;SDS011;41006;50.920;3.456;2023-05-23T01:46:21;45.20;;;34.30;;
55112;SDS011;41006;50.920;3.456;2023-05-23T01:46:54;47.28;;;35.67;;
55112;SDS011;41006;50.920;3.456;2023-05-23T01:47:26;49.20;;;34.15;;
55112;SDS011;41006;50.920;3.456;2023-05-23T01:48:02;45.97;;;34.78;;
55112;SDS011;41006;50.920;3.456;2023-05-23T01:48:35;44.15;;;34.45;;
55112;SDS011;41006;50.920;3.456;2023-05-23T01:49:08;43.42;;;35.45;;
55112;SDS011;41006;50.920;3.456;2023-05-23T01:49:41;54.28;;;36.83;;
55112;SDS011;41006;50.920;3.456;2023-05-23T01:50:16;49.50;;;36.03;;
55112;SDS011;41006;50.920;3.456;2023-05-23T01:50:49;46.65;;;35.42;;
55112;SDS011;41006;50.920;3.456;2023-05-23T01:51:20;52.08;;;37.15;;
55112;SDS011;41006;50.920;3.456;2023-05-23T01:51:56;51.60;;;37.67;;
55112;SDS011;41006;50.920;3.456;2023-05-23T01:52:31;52.63;;;34.88;;
55112;SDS011;41006;50.920;3.456;2023-05-23T01:53:02;63.30;;;37.88;;
55112;SDS011;41006;50.920;3.456;2023-05-23T01:53:33;54.85;;;36.25;;
55112;SDS011;41006;50.920;3.456;2023-05-23T01:54:09;47.05;;;36.45;;
55112;SDS011;41006;50.920;3.456;2023-05-23T01:54:43;56.05;;;37.67;;
55112;SDS011;41006;50.920;3.456;2023-05-23T01:55:15;48.28;;;37.70;;
55112;SDS011;41006;50.920;3.456;2023-05-23T01:55:53;45.75;;;36.05;;
55112;SDS011;41006;50.920;3.456;2023-05-23T01:56:25;61.85;;;38.42;;
55112;SDS011;41006;50.920;3.456;2023-05-23T01:56:56;55.08;;;39.58;;
55112;SDS011;41006;50.920;3.456;2023-05-23T01:57:28;68.85;;;40.33;;
55112;SDS011;41006;50.920;3.456;2023-05-23T01:58:02;57.10;;;39.50;;
55112;SDS011;41006;50.920;3.456;2023-05-23T01:58:37;48.38;;;37.08;;
55112;SDS011;41006;50.920;3.456;2023-05-23T01:59:10;57.00;;;37.85;;
55112;SDS011;41006;50.920;3.456;2023-05-23T01:59:41;51.53;;;38.63;;
55112;SDS011;41006;50.920;3.456;2023-05-23T02:00:16;60.00;;;37.97;;
55112;SDS011;41006;50.920;3.456;2023-05-23T02:00:50;58.60;;;37.75;;
55112;SDS011;41006;50.920;3.456;2023-05-23T02:01:22;55.40;;;37.15;;
55112;SDS011;41006;50.920;3.456;2023-05-23T02:01:53;59.83;;;39.95;;
55112;SDS011;41006;50.920;3.456;2023-05-23T02:02:25;60.40;;;39.83;;
55112;SDS011;41006;50.920;3.456;2023-05-23T02:02:56;54.10;;;38.92;;
55112;SDS011;41006;50.920;3.456;2023-05-23T02:03:26;56.08;;;39.42;;
55112;SDS011;41006;50.920;3.456;2023-05-23T02:03:59;55.47;;;38.88;;
55112;SDS011;41006;50.920;3.456;2023-05-23T02:04:30;56.60;;;38.50;;
55112;SDS011;41006;50.920;3.456;2023-05-23T02:05:00;56.30;;;38.33;;
55112;SDS011;41006;50.920;3.456;2023-05-23T02:05:33;67.88;;;38.63;;
55112;SDS011;41006;50.920;3.456;2023-05-23T02:06:06;58.28;;;39.50;;
55112;SDS011;41006;50.920;3.456;2023-05-23T02:06:36;59.95;;;38.38;;
55112;SDS011;41006;50.920;3.456;2023-05-23T02:07:10;56.10;;;37.28;;
55112;SDS011;41006;50.920;3.456;2023-05-23T02:07:41;58.25;;;37.70;;
55112;SDS011;41006;50.920;3.456;2023-05-23T02:08:11;60.28;;;39.63;;
55112;SDS011;41006;50.920;3.456;2023-05-23T02:08:44;59.95;;;38.17;;
55112;SDS011;41006;50.920;3.456;2023-05-23T02:09:14;56.70;;;36.47;;
55112;SDS011;41006;50.920;3.456;2023-05-23T02:09:48;59.95;;;38.83;;
55112;SDS011;41006;50.920;3.456;2023-05-23T02:10:21;53.28;;;37.42;;
55112;SDS011;41006;50.920;3.456;2023-05-23T02:10:52;57.90;;;36.20;;
55112;SDS011;41006;50.920;3.456;2023-05-23T02:11:24;61.08;;;38.78;;
55112;SDS011;41006;50.920;3.456;2023-05-23T02:11:57;51.10;;;36.42;;
55112;SDS011;41006;50.920;3.456;2023-05-23T02:12:30;46.50;;;36.78;;
55112;SDS011;41006;50.920;3.456;2023-05-23T02:13:03;50.33;;;33.88;;
55112;SDS011;41006;50.920;3.456;2023-05-23T02:13:33;53.08;;;36.65;;
55112;SDS011;41006;50.920;3.456;2023-05-23T02:14:06;51.53;;;36.50;;
55112;SDS011;41006;50.920;3.456;2023-05-23T02:14:37;52.45;;;36.03;;
55112;SDS011;41006;50.920;3.456;2023-05-23T02:15:12;51.88;;;36.08;;
55112;SDS011;41006;50.920;3.456;2023-05-23T02:15:42;48.28;;;35.78;;
55112;SDS011;41006;50.920;3.456;2023-05-23T02:16:15;62.05;;;37.65;;
55112;SDS011;41006;50.920;3.456;2023-05-23T02:16:45;49.42;;;35.88;;
55112;SDS011;41006;50.920;3.456;2023-05-23T02:17:16;51.65;;;36.67;;
55112;SDS011;41006;50.920;3.456;2023-05-23T02:17:56;60.95;;;34.75;;
55112;SDS011;41006;50.920;3.456;2023-05-23T02:18:29;56.65;;;36.92;;
55112;SDS011;41006;50.920;3.456;2023-05-23T02:18:59;44.97;;;33.80;;
55112;SDS011;41006;50.920;3.456;2023-05-23T02:19:31;47.80;;;34.67;;
55112;SDS011;41006;50.920;3.456;2023-05-23T02:20:01;55.80;;;37.05;;
55112;SDS011;41006;50.920;3.456;2023-05-23T02:20:36;46.92;;;35.30;;
55112;SDS011;41006;50.920;3.456;2023-05-23T02:21:09;54.58;;;35.60;;
55112;SDS011;41006;50.920;3.456;2023-05-23T02:21:42;47.22;;;34.00;;
55112;SDS011;41006;50.920;3.456;2023-05-23T02:22:15;51.38;;;34.20;;
55112;SDS011;41006;50.920;3.456;2023-05-23T02:22:56;50.67;;;33.05;;
55112;SDS011;41006;50.920;3.456;2023-05-23T02:23:31;50.50;;;33.00;;
55112;SDS011;41006;50.920;3.456;2023-05-23T02:24:04;53.80;;;33.03;;
55112;SDS011;41006;50.920;3.456;2023-05-23T02:24:34;44.78;;;32.83;;
55112;SDS011;41006;50.920;3.456;2023-05-23T02:25:09;44.03;;;32.58;;
55112;SDS011;41006;50.920;3.456;2023-05-23T02:25:42;61.13;;;33.40;;
55112;SDS011;41006;50.920;3.456;2023-05-23T02:26:15;45.72;;;32.80;;
55112;SDS011;41006;50.920;3.456;2023-05-23T02:26:48;48.83;;;33.17;;
55112;SDS011;41006;50.920;3.456;2023-05-23T02:27:26;51.92;;;31.92;;
55112;SDS011;41006;50.920;3.456;2023-05-23T02:27:59;44.40;;;31.52;;
55112;SDS011;41006;50.920;3.456;2023-05-23T02:28:31;41.47;;;31.60;;
55112;SDS011;41006;50.920;3.456;2023-05-23T02:29:01;40.33;;;30.85;;
55112;SDS011;41006;50.920;3.456;2023-05-23T02:29:37;43.17;;;31.27;;
55112;SDS011;41006;50.920;3.456;2023-05-23T02:30:09;42.55;;;29.73;;
55112;SDS011;41006;50.920;3.456;2023-05-23T02:30:40;54.90;;;30.83;;
55112;SDS011;41006;50.920;3.456;2023-05-23T02:31:13;49.05;;;30.98;;
55112;SDS011;41006;50.920;3.456;2023-05-23T02:31:46;43.75;;;30.27;;
55112;SDS011;41006;50.920;3.456;2023-05-23T02:32:16;44.88;;;28.83;;
55112;SDS011;41006;50.920;3.456;2023-05-23T02:32:49;43.17;;;30.05;;
55112;SDS011;41006;50.920;3.456;2023-05-23T02:33:20;40.05;;;28.40;;
55112;SDS011;41006;50.920;3.456;2023-05-23T02:33:50;42.00;;;28.65;;
55112;SDS011;41006;50.920;3.456;2023-05-23T02:34:21;43.75;;;29.08;;
55112;SDS011;41006;50.920;3.456;2023-05-23T02:34:54;45.55;;;31.25;;
55112;SDS011;41006;50.920;3.456;2023-05-23T02:35:24;42.72;;;31.13;;
55112;SDS011;41006;50.920;3.456;2023-05-23T02:35:55;42.78;;;29.33;;
55112;SDS011;41006;50.920;3.456;2023-05-23T02:36:25;37.40;;;28.92;;
55112;SDS011;41006;50.920;3.456;2023-05-23T02:36:58;40.63;;;29.08;;
55112;SDS011;41006;50.920;3.456;2023-05-23T02:37:31;53.28;;;31.17;;
55112;SDS011;41006;50.920;3.456;2023-05-23T02:38:01;43.63;;;31.15;;
55112;SDS011;41006;50.920;3.456;2023-05-23T02:38:33;45.60;;;29.77;;
55112;SDS011;41006;50.920;3.456;2023-05-23T02:39:06;39.13;;;28.25;;
55112;SDS011;41006;50.920;3.456;2023-05-23T02:39:39;45.67;;;29.45;;
55112;SDS011;41006;50.920;3.456;2023-05-23T02:40:11;44.13;;;29.73;;
55112;SDS011;41006;50.920;3.456;2023-05-23T02:40:42;56.00;;;30.83;;
55112;SDS011;41006;50.920;3.456;2023-05-23T02:41:12;42.60;;;30.73;;
55112;SDS011;41006;50.920;3.456;2023-05-23T02:41:45;39.55;;;28.92;;
55112;SDS011;41006;50.920;3.456;2023-05-23T02:42:18;51.13;;;30.83;;
55112;SDS011;41006;50.920;3.456;2023-05-23T02:42:48;37.80;;;29.60;;
55112;SDS011;41006;50.920;3.456;2023-05-23T02:43:20;42.30;;;29.40;;
55112;SDS011;41006;50.920;3.456;2023-05-23T02:43:53;44.60;;;29.52;;
55112;SDS011;41006;50.920;3.456;2023-05-23T02:44:23;43.55;;;30.88;;
55112;SDS011;41006;50.920;3.456;2023-05-23T02:44:56;36.88;;;31.10;;
55112;SDS011;41006;50.920;3.456;2023-05-23T02:45:34;45.80;;;30.23;;
55112;SDS011;41006;50.920;3.456;2023-05-23T02:46:04;36.17;;;29.88;;
55112;SDS011;41006;50.920;3.456;2023-05-23T02:46:37;44.22;;;29.90;;
55112;SDS011;41006;50.920;3.456;2023-05-23T02:47:07;41.40;;;29.55;;
55112;SDS011;41006;50.920;3.456;2023-05-23T02:47:40;46.17;;;28.77;;
55112;SDS011;41006;50.920;3.456;2023-05-23T02:48:12;40.53;;;29.40;;
55112;SDS011;41006;50.920;3.456;2023-05-23T02:48:43;35.80;;;29.77;;
55112;SDS011;41006;50.920;3.456;2023-05-23T02:49:18;44.47;;;30.88;;
55112;SDS011;41006;50.920;3.456;2023-05-23T02:49:50;41.92;;;29.25;;
55112;SDS011;41006;50.920;3.456;2023-05-23T02:50:23;40.38;;;29.30;;
55112;SDS011;41006;50.920;3.456;2023-05-23T02:50:56;37.25;;;30.13;;
55112;SDS011;41006;50.920;3.456;2023-05-23T02:51:29;39.83;;;29.85;;
55112;SDS011;41006;50.920;3.456;2023-05-23T02:52:01;41.25;;;28.90;;
55112;SDS011;41006;50.920;3.456;2023-05-23T02:52:34;38.00;;;29.30;;
55112;SDS011;41006;50.920;3.456;2023-05-23T02:53:04;33.85;;;28.80;;
55112;SDS011;41006;50.920;3.456;2023-05-23T02:53:37;39.80;;;27.92;;
55112;SDS011;41006;50.920;3.456;2023-05-23T02:54:10;35.30;;;29.35;;
55112;SDS011;41006;50.920;3.456;2023-05-23T02:54:40;37.92;;;29.50;;
55112;SDS011;41006;50.920;3.456;2023-05-23T02:55:10;34.63;;;28.83;;
55112;SDS011;41006;50.920;3.456;2023-05-23T02:55:41;38.13;;;30.70;;
55112;SDS011;41006;50.920;3.456;2023-05-23T02:56:13;34.17;;;28.88;;
55112;SDS011;41006;50.920;3.456;2023-05-23T02:56:46;38.60;;;29.35;;
55112;SDS011;41006;50.920;3.456;2023-05-23T02:57:16;41.28;;;29.70;;
55112;SDS011;41006;50.920;3.456;2023-05-23T02:57:49;35.47;;;29.33;;
55112;SDS011;41006;50.920;3.456;2023-05-23T02:58:22;34.38;;;29.73;;
55112;SDS011;41006;50.920;3.456;2023-05-23T02:58:53;33.92;;;29.75;;
55112;SDS011;41006;50.920;3.456;2023-05-23T02:59:24;39.65;;;30.17;;
55112;SDS011;41006;50.920;3.456;2023-05-23T02:59:57;34.25;;;30.02;;
55112;SDS011;41006;50.920;3.456;2023-05-23T03:00:32;37.80;;;30.13;;
55112;SDS011;41006;50.920;3.456;2023-05-23T03:01:05;37.90;;;29.65;;
55112;SDS011;41006;50.920;3.456;2023-05-23T03:01:37;40.97;;;30.25;;
55112;SDS011;41006;50.920;3.456;2023-05-23T03:02:09;36.70;;;28.25;;
55112;SDS011;41006;50.920;3.456;2023-05-23T03:02:40;41.75;;;29.63;;
55112;SDS011;41006;50.920;3.456;2023-05-23T03:03:12;43.33;;;30.20;;
55112;SDS011;41006;50.920;3.456;2023-05-23T03:03:43;41.50;;;30.42;;
55112;SDS011;41006;50.920;3.456;2023-05-23T03:04:18;44.70;;;30.88;;
55112;SDS011;41006;50.920;3.456;2023-05-23T03:04:53;42.13;;;29.33;;
55112;SDS011;41006;50.920;3.456;2023-05-23T03:05:27;50.33;;;29.58;;
55112;SDS011;41006;50.920;3.456;2023-05-23T03:05:57;40.60;;;30.60;;
55112;SDS011;41006;50.920;3.456;2023-05-23T03:06:27;43.38;;;30.45;;
55112;SDS011;41006;50.920;3.456;2023-05-23T03:07:01;35.80;;;30.45;;
55112;SDS011;41006;50.920;3.456;2023-05-23T03:07:32;39.35;;;30.27;;
55112;SDS011;41006;50.920;3.456;2023-05-23T03:08:03;46.65;;;30.80;;
55112;SDS011;41006;50.920;3.456;2023-05-23T03:08:35;44.47;;;30.75;;
55112;SDS011;41006;50.920;3.456;2023-05-23T03:09:06;43.25;;;31.02;;
55112;SDS011;41006;50.920;3.456;2023-05-23T03:09:37;43.50;;;30.75;;
55112;SDS011;41006;50.920;3.456;2023-05-23T03:10:08;36.30;;;29.83;;
55112;SDS011;41006;50.920;3.456;2023-05-23T03:10:40;36.95;;;29.35;;
55112;SDS011;41006;50.920;3.456;2023-05-23T03:11:13;38.03;;;29.40;;
55112;SDS011;41006;50.920;3.456;2023-05-23T03:11:44;38.70;;;29.90;;
55112;SDS011;41006;50.920;3.456;2023-05-23T03:12:17;43.08;;;29.25;;
55112;SDS011;41006;50.920;3.456;2023-05-23T03:12:49;30.85;;;27.38;;
55112;SDS011;41006;50.920;3.456;2023-05-23T03:13:20;37.78;;;28.38;;
55112;SDS011;41006;50.920;3.456;2023-05-23T03:13:53;40.55;;;28.50;;
55112;SDS011;41006;50.920;3.456;2023-05-23T03:14:24;38.67;;;29.98;;
55112;SDS011;41006;50.920;3.456;2023-05-23T03:14:55;41.33;;;29.83;;
55112;SDS011;41006;50.920;3.456;2023-05-23T03:15:25;45.78;;;28.15;;
55112;SDS011;41006;50.920;3.456;2023-05-23T03:15:55;41.70;;;29.70;;
55112;SDS011;41006;50.920;3.456;2023-05-23T03:16:26;43.58;;;29.70;;
55112;SDS011;41006;50.920;3.456;2023-05-23T03:16:59;35.42;;;29.90;;
55112;SDS011;41006;50.920;3.456;2023-05-23T03:17:29;42.40;;;29.02;;
55112;SDS011;41006;50.920;3.456;2023-05-23T03:18:00;35.15;;;30.15;;
55112;SDS011;41006;50.920;3.456;2023-05-23T03:18:35;42.85;;;28.58;;
55112;SDS011;41006;50.920;3.456;2023-05-23T03:19:06;41.83;;;29.05;;
55112;SDS011;41006;50.920;3.456;2023-05-23T03:19:36;38.47;;;27.73;;
55112;SDS011;41006;50.920;3.456;2023-05-23T03:20:06;36.53;;;28.50;;